sensor_id;sensor_type;location;lat;lon;timestamp;pressure;altitude;pressure_sealevel;temperature;humidity
23616;BME280;11985;49.404;7.734;2023-04-15T00:01:39;96352.28;;;2.26;100.00
23616;BME280;11985;49.404;7.734;2023-04-15T00:06:42;96353.00;;;2.20;100.00
23616;BME280;11985;49.404;7.734;2023-04-15T00:11:43;96347.69;;;2.13;100.00
23616;BME280;11985;49.404;7.734;2023-04-15T00:16:46;96345.63;;;2.08;100.00
23616;BME280;11985;49.404;7.734;2023-04-15T00:21:54;96339.53;;;2.01;100.00
23616;BME280;11985;49.404;7.734;2023-04-15T00:26:56;96345.41;;;1.95;100.00
23616;BME280;11985;49.404;7.734;2023-04-15T00:31:59;96346.09;;;1.89;100.00
23616;BME280;11985;49.404;7.734;2023-04-15T00:37:02;96350.03;;;1.85;100.00
23616;BME280;11985;49.404;7.734;2023-04-15T00:42:04;96333.53;;;1.78;100.00
23616;BME280;11985;49.404;7.734;2023-04-15T00:47:07;96332.25;;;1.74;100.00
23616;BME280;11985;49.404;7.734;2023-04-15T00:52:09;96330.97;;;1.70;100.00
23616;BME280;11985;49.404;7.734;2023-04-15T00:57:11;96325.19;;;1.59;100.00
23616;BME280;11985;49.404;7.734;2023-04-15T01:02:14;96327.22;;;1.49;100.00
23616;BME280;11985;49.404;7.734;2023-04-15T01:07:16;96320.47;;;1.40;100.00
23616;BME280;11985;49.404;7.734;2023-04-15T01:12:19;96309.63;;;1.37;100.00
23616;BME280;11985;49.404;7.734;2023-04-15T01:17:23;96309.63;;;1.37;100.00
23616;BME280;11985;49.404;7.734;2023-04-15T01:22:25;96319.06;;;1.29;100.00
23616;BME280;11985;49.404;7.734;2023-04-15T01:27:29;96316.00;;;1.26;100.00
23616;BME280;11985;49.404;7.734;2023-04-15T01:32:31;96318.94;;;1.23;100.00
23616;BME280;11985;49.404;7.734;2023-04-15T01:37:33;96324.66;;;1.18;100.00
23616;BME280;11985;49.404;7.734;2023-04-15T01:42:36;96318.34;;;1.13;100.00
23616;BME280;11985;49.404;7.734;2023-04-15T01:47:38;96322.25;;;1.09;100.00
23616;BME280;11985;49.404;7.734;2023-04-15T01:52:40;96328.59;;;1.06;100.00
23616;BME280;11985;49.404;7.734;2023-04-15T01:57:44;96327.50;;;1.00;100.00
23616;BME280;11985;49.404;7.734;2023-04-15T02:02:45;96326.19;;;0.96;100.00
23616;BME280;11985;49.404;7.734;2023-04-15T02:07:47;96326.31;;;0.64;100.00
23616;BME280;11985;49.404;7.734;2023-04-15T02:12:50;96324.44;;;0.41;100.00
23616;BME280;11985;49.404;7.734;2023-04-15T02:17:53;96335.78;;;0.40;100.00
23616;BME280;11985;49.404;7.734;2023-04-15T02:22:54;96327.34;;;0.46;100.00
23616;BME280;11985;49.404;7.734;2023-04-15T02:27:58;96326.84;;;0.51;100.00
23616;BME280;11985;49.404;7.734;2023-04-15T02:33:00;96335.06;;;0.55;100.00
23616;BME280;11985;49.404;7.734;2023-04-15T02:38:01;96330.56;;;0.48;100.00
23616;BME280;11985;49.404;7.734;2023-04-15T02:43:04;96335.41;;;0.43;100.00
23616;BME280;11985;49.404;7.734;2023-04-15T02:48:07;96327.00;;;0.33;100.00
23616;BME280;11985;49.404;7.734;2023-04-15T02:53:08;96331.25;;;0.26;100.00
23616;BME280;11985;49.404;7.734;2023-04-15T02:58:11;96323.47;;;0.26;100.00
23616;BME280;11985;49.404;7.734;2023-04-15T03:03:13;96324.94;;;0.29;100.00
23616;BME280;11985;49.404;7.734;2023-04-15T03:08:15;96328.97;;;0.31;100.00
23616;BME280;11985;49.404;7.734;2023-04-15T03:13:18;96331.59;;;0.23;100.00
23616;BME280;11985;49.404;7.734;2023-04-15T03:18:20;96335.97;;;0.22;100.00
23616;BME280;11985;49.404;7.734;2023-04-15T03:23:22;96340.97;;;0.16;100.00
23616;BME280;11985;49.404;7.734;2023-04-15T03:28:25;96325.78;;;0.13;100.00
23616;BME280;11985;49.404;7.734;2023-04-15T03:33:28;96324.78;;;0.14;100.00
23616;BME280;11985;49.404;7.734;2023-04-15T03:38:29;96323.16;;;0.21;100.00
23616;BME280;11985;49.404;7.734;2023-04-15T03:43:32;96321.06;;;0.24;100.00
23616;BME280;11985;49.404;7.734;2023-04-15T03:48:34;96318.63;;;0.23;100.00
23616;BME280;11985;49.404;7.734;2023-04-15T03:53:35;96325.59;;;0.22;100.00
23616;BME280;11985;49.404;7.734;2023-04-15T03:58:38;96325.75;;;0.21;100.00
23616;BME280;11985;49.404;7.734;2023-04-15T04:03:40;96326.75;;;0.12;100.00
23616;BME280;11985;49.404;7.734;2023-04-15T04:08:42;96331.25;;;0.10;100.00
23616;BME280;11985;49.404;7.734;2023-04-15T04:13:45;96332.25;;;0.09;100.00
23616;BME280;11985;49.404;7.734;2023-04-15T04:18:47;96336.09;;;0.29;100.00
23616;BME280;11985;49.404;7.734;2023-04-15T04:23:48;96337.03;;;0.52;100.00
23616;BME280;11985;49.404;7.734;2023-04-15T04:28:51;96334.72;;;0.74;100.00
23616;BME280;11985;49.404;7.734;2023-04-15T04:33:53;96340.84;;;0.81;100.00
23616;BME280;11985;49.404;7.734;2023-04-15T04:38:54;96344.38;;;0.88;100.00
23616;BME280;11985;49.404;7.734;2023-04-15T04:43:57;96345.03;;;0.90;100.00
23616;BME280;11985;49.404;7.734;2023-04-15T04:49:02;96346.56;;;1.08;100.00
23616;BME280;11985;49.404;7.734;2023-04-15T04:54:05;96341.56;;;1.06;100.00
23616;BME280;11985;49.404;7.734;2023-04-15T04:59:08;96338.88;;;0.83;100.00
23616;BME280;11985;49.404;7.734;2023-04-15T05:04:09;96342.03;;;0.62;100.00
23616;BME280;11985;49.404;7.734;2023-04-15T05:09:11;96334.28;;;0.54;100.00
23616;BME280;11985;49.404;7.734;2023-04-15T05:14:14;96339.78;;;0.51;100.00
23616;BME280;11985;49.404;7.734;2023-04-15T05:19:16;96339.00;;;0.50;100.00
23616;BME280;11985;49.404;7.734;2023-04-15T05:24:18;96352.41;;;0.54;100.00
23616;BME280;11985;49.404;7.734;2023-04-15T05:29:21;96345.41;;;0.71;100.00
23616;BME280;11985;49.404;7.734;2023-04-15T05:34:23;96349.34;;;0.98;100.00
23616;BME280;11985;49.404;7.734;2023-04-15T05:39:24;96360.78;;;1.20;100.00
23616;BME280;11985;49.404;7.734;2023-04-15T05:44:28;96372.00;;;1.43;100.00
23616;BME280;11985;49.404;7.734;2023-04-15T05:49:29;96364.78;;;1.62;100.00
23616;BME280;11985;49.404;7.734;2023-04-15T05:54:31;96365.88;;;1.67;100.00
23616;BME280;11985;49.404;7.734;2023-04-15T05:59:34;96369.53;;;1.81;100.00
23616;BME280;11985;49.404;7.734;2023-04-15T06:04:36;96378.50;;;1.93;100.00
23616;BME280;11985;49.404;7.734;2023-04-15T06:09:38;96379.91;;;2.04;100.00
23616;BME280;11985;49.404;7.734;2023-04-15T06:14:42;96375.97;;;2.31;100.00
23616;BME280;11985;49.404;7.734;2023-04-15T06:19:43;96382.69;;;2.78;100.00
23616;BME280;11985;49.404;7.734;2023-04-15T06:24:45;96389.47;;;3.38;100.00
23616;BME280;11985;49.404;7.734;2023-04-15T06:29:48;96390.06;;;3.91;100.00
23616;BME280;11985;49.404;7.734;2023-04-15T06:34:50;96387.31;;;4.42;100.00
23616;BME280;11985;49.404;7.734;2023-04-15T06:39:51;96384.63;;;5.19;100.00
23616;BME280;11985;49.404;7.734;2023-04-15T06:44:54;96393.94;;;5.90;100.00
23616;BME280;11985;49.404;7.734;2023-04-15T06:49:56;96397.25;;;6.71;100.00
23616;BME280;11985;49.404;7.734;2023-04-15T06:54:57;96392.91;;;7.36;95.35
23616;BME280;11985;49.404;7.734;2023-04-15T07:00:01;96399.13;;;7.87;90.93
23616;BME280;11985;49.404;7.734;2023-04-15T07:05:05;96395.63;;;8.38;87.08
23616;BME280;11985;49.404;7.734;2023-04-15T07:10:09;96396.72;;;9.05;83.57
23616;BME280;11985;49.404;7.734;2023-04-15T07:15:12;96384.09;;;9.32;78.32
23616;BME280;11985;49.404;7.734;2023-04-15T07:20:14;96381.91;;;9.47;75.68
23616;BME280;11985;49.404;7.734;2023-04-15T07:25:15;96391.97;;;9.69;73.81
23616;BME280;11985;49.404;7.734;2023-04-15T07:30:19;96394.66;;;9.81;72.03
23616;BME280;11985;49.404;7.734;2023-04-15T07:35:21;96400.72;;;9.81;71.14
23616;BME280;11985;49.404;7.734;2023-04-15T07:40:22;96393.56;;;9.70;70.23
23616;BME280;11985;49.404;7.734;2023-04-15T07:45:26;96400.28;;;9.84;70.04
23616;BME280;11985;49.404;7.734;2023-04-15T07:50:27;96403.00;;;10.08;69.02
23616;BME280;11985;49.404;7.734;2023-04-15T07:55:29;96407.19;;;10.27;68.15
23616;BME280;11985;49.404;7.734;2023-04-15T08:00:32;96406.03;;;10.65;67.13
23616;BME280;11985;49.404;7.734;2023-04-15T08:05:34;96406.41;;;10.92;66.84
23616;BME280;11985;49.404;7.734;2023-04-15T08:10:36;96407.19;;;11.16;66.06
23616;BME280;11985;49.404;7.734;2023-04-15T08:15:39;96403.78;;;11.03;65.55
23616;BME280;11985;49.404;7.734;2023-04-15T08:20:41;96411.78;;;11.32;65.55
23616;BME280;11985;49.404;7.734;2023-04-15T08:25:43;96413.38;;;11.09;65.46
23616;BME280;11985;49.404;7.734;2023-04-15T08:30:46;96419.94;;;11.19;65.62
23616;BME280;11985;49.404;7.734;2023-04-15T08:35:47;96427.72;;;11.02;65.15
23616;BME280;11985;49.404;7.734;2023-04-15T08:40:49;96442.84;;;10.95;64.55
23616;BME280;11985;49.404;7.734;2023-04-15T08:45:53;96448.13;;;10.95;65.10
23616;BME280;11985;49.404;7.734;2023-04-15T08:50:58;96439.31;;;11.13;64.95
23616;BME280;11985;49.404;7.734;2023-04-15T08:56:03;96445.47;;;11.53;64.36
23616;BME280;11985;49.404;7.734;2023-04-15T09:01:07;96446.56;;;11.81;63.60
23616;BME280;11985;49.404;7.734;2023-04-15T09:06:09;96456.22;;;11.63;63.03
23616;BME280;11985;49.404;7.734;2023-04-15T09:11:10;96453.66;;;11.92;62.17
23616;BME280;11985;49.404;7.734;2023-04-15T09:16:13;96462.06;;;11.89;61.35
23616;BME280;11985;49.404;7.734;2023-04-15T09:21:16;96460.09;;;11.96;61.62
23616;BME280;11985;49.404;7.734;2023-04-15T09:26:18;96468.88;;;12.13;61.70
23616;BME280;11985;49.404;7.734;2023-04-15T09:31:28;96465.72;;;12.57;60.25
23616;BME280;11985;49.404;7.734;2023-04-15T09:36:37;96470.13;;;12.68;58.98
23616;BME280;11985;49.404;7.734;2023-04-15T09:41:41;96483.16;;;12.58;58.37
23616;BME280;11985;49.404;7.734;2023-04-15T09:46:45;96475.84;;;12.93;56.37
23616;BME280;11985;49.404;7.734;2023-04-15T09:51:47;96474.22;;;12.92;56.88
23616;BME280;11985;49.404;7.734;2023-04-15T09:56:48;96477.09;;;12.74;55.99
23616;BME280;11985;49.404;7.734;2023-04-15T10:01:51;96479.69;;;12.86;56.37
23616;BME280;11985;49.404;7.734;2023-04-15T10:06:53;96485.47;;;13.00;54.81
23616;BME280;11985;49.404;7.734;2023-04-15T10:11:55;96487.63;;;13.19;53.20
23616;BME280;11985;49.404;7.734;2023-04-15T10:17:00;96489.13;;;13.49;53.26
23616;BME280;11985;49.404;7.734;2023-04-15T10:22:02;96497.66;;;13.51;52.88
23616;BME280;11985;49.404;7.734;2023-04-15T10:27:04;96496.75;;;13.62;52.81
23616;BME280;11985;49.404;7.734;2023-04-15T10:32:08;96500.13;;;13.96;51.59
23616;BME280;11985;49.404;7.734;2023-04-15T10:37:10;96500.16;;;13.80;49.18
23616;BME280;11985;49.404;7.734;2023-04-15T10:42:13;96519.28;;;13.65;48.77
23616;BME280;11985;49.404;7.734;2023-04-15T10:47:18;96525.06;;;13.62;47.75
23616;BME280;11985;49.404;7.734;2023-04-15T10:52:22;96519.94;;;13.55;48.57
23616;BME280;11985;49.404;7.734;2023-04-15T10:57:33;96515.44;;;13.72;48.54
23616;BME280;11985;49.404;7.734;2023-04-15T11:02:45;96531.69;;;13.64;49.95
23616;BME280;11985;49.404;7.734;2023-04-15T11:07:49;96529.56;;;13.44;50.14
23616;BME280;11985;49.404;7.734;2023-04-15T11:12:53;96530.44;;;13.50;50.71
23616;BME280;11985;49.404;7.734;2023-04-15T11:17:57;96545.91;;;13.58;49.37
23616;BME280;11985;49.404;7.734;2023-04-15T11:22:59;96548.97;;;13.50;48.87
23616;BME280;11985;49.404;7.734;2023-04-15T11:28:01;96548.53;;;13.58;49.28
23616;BME280;11985;49.404;7.734;2023-04-15T11:33:06;96556.38;;;13.87;48.43
23616;BME280;11985;49.404;7.734;2023-04-15T11:38:09;96564.16;;;13.77;48.51
23616;BME280;11985;49.404;7.734;2023-04-15T11:43:13;96568.00;;;13.86;48.68
23616;BME280;11985;49.404;7.734;2023-04-15T11:48:17;96576.91;;;13.80;47.69
23616;BME280;11985;49.404;7.734;2023-04-15T11:53:18;96571.88;;;13.61;45.91
23616;BME280;11985;49.404;7.734;2023-04-15T11:58:22;96569.00;;;13.46;47.60
23616;BME280;11985;49.404;7.734;2023-04-15T12:03:27;96567.69;;;13.82;48.31
23616;BME280;11985;49.404;7.734;2023-04-15T12:08:48;96583.72;;;13.92;47.92
23616;BME280;11985;49.404;7.734;2023-04-15T12:13:49;96588.81;;;13.99;46.53
23616;BME280;11985;49.404;7.734;2023-04-15T12:18:54;96602.72;;;14.06;44.54
23616;BME280;11985;49.404;7.734;2023-04-15T12:23:56;96600.84;;;14.23;43.35
23616;BME280;11985;49.404;7.734;2023-04-15T12:29:00;96614.28;;;14.39;42.83
23616;BME280;11985;49.404;7.734;2023-04-15T12:34:06;96620.28;;;14.73;42.48
23616;BME280;11985;49.404;7.734;2023-04-15T12:39:08;96620.75;;;14.92;41.77
23616;BME280;11985;49.404;7.734;2023-04-15T12:44:10;96621.72;;;15.08;41.86
23616;BME280;11985;49.404;7.734;2023-04-15T12:49:14;96628.63;;;15.36;41.46
23616;BME280;11985;49.404;7.734;2023-04-15T12:54:16;96620.72;;;15.14;40.91
23616;BME280;11985;49.404;7.734;2023-04-15T12:59:17;96634.72;;;15.09;42.09
23616;BME280;11985;49.404;7.734;2023-04-15T13:04:21;96639.03;;;15.15;41.56
23616;BME280;11985;49.404;7.734;2023-04-15T13:09:22;96646.84;;;15.00;42.35
23616;BME280;11985;49.404;7.734;2023-04-15T13:14:24;96655.34;;;15.02;42.44
23616;BME280;11985;49.404;7.734;2023-04-15T13:19:27;96654.50;;;14.74;42.11
23616;BME280;11985;49.404;7.734;2023-04-15T13:24:29;96654.31;;;14.42;42.94
23616;BME280;11985;49.404;7.734;2023-04-15T13:29:31;96655.00;;;14.71;42.50
23616;BME280;11985;49.404;7.734;2023-04-15T13:34:34;96658.94;;;14.91;42.05
23616;BME280;11985;49.404;7.734;2023-04-15T13:39:36;96663.75;;;14.94;41.64
23616;BME280;11985;49.404;7.734;2023-04-15T13:44:37;96672.97;;;14.69;41.19
23616;BME280;11985;49.404;7.734;2023-04-15T13:49:40;96680.44;;;14.34;41.31
23616;BME280;11985;49.404;7.734;2023-04-15T13:54:42;96686.84;;;14.21;42.00
23616;BME280;11985;49.404;7.734;2023-04-15T13:59:44;96678.53;;;14.12;42.53
23616;BME280;11985;49.404;7.734;2023-04-15T14:04:47;96702.28;;;14.07;42.71
23616;BME280;11985;49.404;7.734;2023-04-15T14:09:49;96706.69;;;13.85;43.50
23616;BME280;11985;49.404;7.734;2023-04-15T14:14:50;96706.94;;;13.66;44.54
23616;BME280;11985;49.404;7.734;2023-04-15T14:19:53;96716.94;;;13.64;44.65
23616;BME280;11985;49.404;7.734;2023-04-15T14:24:55;96728.03;;;13.09;45.31
23616;BME280;11985;49.404;7.734;2023-04-15T14:29:57;96729.66;;;13.10;46.30
23616;BME280;11985;49.404;7.734;2023-04-15T14:35:00;96741.50;;;13.08;46.35
23616;BME280;11985;49.404;7.734;2023-04-15T14:40:04;96750.16;;;12.91;46.43
23616;BME280;11985;49.404;7.734;2023-04-15T14:45:07;96764.44;;;12.79;46.96
23616;BME280;11985;49.404;7.734;2023-04-15T14:50:10;96771.31;;;12.68;47.11
23616;BME280;11985;49.404;7.734;2023-04-15T14:55:12;96774.22;;;12.55;47.74
23616;BME280;11985;49.404;7.734;2023-04-15T15:00:14;96785.09;;;12.35;48.39
23616;BME280;11985;49.404;7.734;2023-04-15T15:05:17;96780.63;;;12.24;49.41
23616;BME280;11985;49.404;7.734;2023-04-15T15:10:19;96806.53;;;12.27;50.07
23616;BME280;11985;49.404;7.734;2023-04-15T15:15:21;96806.38;;;11.98;50.53
23616;BME280;11985;49.404;7.734;2023-04-15T15:20:24;96815.94;;;11.81;51.78
23616;BME280;11985;49.404;7.734;2023-04-15T15:25:26;96810.06;;;11.97;52.56
23616;BME280;11985;49.404;7.734;2023-04-15T15:30:28;96820.94;;;11.89;53.55
23616;BME280;11985;49.404;7.734;2023-04-15T15:35:31;96831.34;;;11.84;54.76
23616;BME280;11985;49.404;7.734;2023-04-15T15:40:32;96850.09;;;11.76;55.76
23616;BME280;11985;49.404;7.734;2023-04-15T15:45:34;96859.06;;;11.38;57.70
23616;BME280;11985;49.404;7.734;2023-04-15T15:50:37;96861.78;;;11.13;57.78
23616;BME280;11985;49.404;7.734;2023-04-15T15:55:39;96872.47;;;11.00;58.21
23616;BME280;11985;49.404;7.734;2023-04-15T16:00:41;96881.09;;;10.89;59.19
23616;BME280;11985;49.404;7.734;2023-04-15T16:05:44;96880.44;;;10.68;59.92
23616;BME280;11985;49.404;7.734;2023-04-15T16:10:46;96892.47;;;10.57;60.45
23616;BME280;11985;49.404;7.734;2023-04-15T16:15:48;96907.59;;;10.37;62.33
23616;BME280;11985;49.404;7.734;2023-04-15T16:20:51;96913.56;;;10.26;64.85
23616;BME280;11985;49.404;7.734;2023-04-15T16:25:53;96920.16;;;9.97;66.34
23616;BME280;11985;49.404;7.734;2023-04-15T16:30:54;96923.44;;;9.86;69.11
23616;BME280;11985;49.404;7.734;2023-04-15T16:35:58;96942.09;;;9.84;71.50
23616;BME280;11985;49.404;7.734;2023-04-15T16:41:00;96945.34;;;9.73;74.13
23616;BME280;11985;49.404;7.734;2023-04-15T16:46:02;96954.88;;;9.67;76.75
23616;BME280;11985;49.404;7.734;2023-04-15T16:51:05;96951.47;;;9.53;79.87
23616;BME280;11985;49.404;7.734;2023-04-15T16:56:07;96966.47;;;9.40;84.60
23616;BME280;11985;49.404;7.734;2023-04-15T17:01:08;96969.13;;;9.33;88.86
23616;BME280;11985;49.404;7.734;2023-04-15T17:06:12;96974.38;;;9.33;91.11
23616;BME280;11985;49.404;7.734;2023-04-15T17:11:13;96977.38;;;9.37;94.32
23616;BME280;11985;49.404;7.734;2023-04-15T17:16:15;96992.13;;;9.51;95.82
23616;BME280;11985;49.404;7.734;2023-04-15T17:21:18;96999.84;;;9.39;96.85
23616;BME280;11985;49.404;7.734;2023-04-15T17:26:20;97003.72;;;9.17;99.45
23616;BME280;11985;49.404;7.734;2023-04-15T17:31:22;97009.53;;;8.99;100.00
23616;BME280;11985;49.404;7.734;2023-04-15T17:36:25;97023.91;;;8.83;100.00
23616;BME280;11985;49.404;7.734;2023-04-15T17:41:27;97019.03;;;8.80;100.00
23616;BME280;11985;49.404;7.734;2023-04-15T17:46:29;97034.00;;;8.80;100.00
23616;BME280;11985;49.404;7.734;2023-04-15T17:51:32;97046.47;;;8.71;100.00
23616;BME280;11985;49.404;7.734;2023-04-15T17:56:34;97055.94;;;8.59;100.00
23616;BME280;11985;49.404;7.734;2023-04-15T18:01:35;97062.78;;;8.46;100.00
23616;BME280;11985;49.404;7.734;2023-04-15T18:06:38;97068.03;;;8.46;100.00
23616;BME280;11985;49.404;7.734;2023-04-15T18:11:40;97071.66;;;8.45;100.00
23616;BME280;11985;49.404;7.734;2023-04-15T18:16:44;97079.91;;;8.42;100.00
23616;BME280;11985;49.404;7.734;2023-04-15T18:21:48;97092.34;;;8.27;100.00
23616;BME280;11985;49.404;7.734;2023-04-15T18:26:51;97092.53;;;8.26;100.00
23616;BME280;11985;49.404;7.734;2023-04-15T18:31:53;97115.69;;;8.15;100.00
23616;BME280;11985;49.404;7.734;2023-04-15T18:36:57;97126.72;;;8.04;100.00
23616;BME280;11985;49.404;7.734;2023-04-15T18:41:58;97131.06;;;7.84;100.00
23616;BME280;11985;49.404;7.734;2023-04-15T18:47:01;97130.91;;;7.64;100.00
23616;BME280;11985;49.404;7.734;2023-04-15T18:52:04;97140.38;;;7.65;100.00
23616;BME280;11985;49.404;7.734;2023-04-15T18:57:05;97146.25;;;7.67;100.00
23616;BME280;11985;49.404;7.734;2023-04-15T19:02:07;97146.19;;;7.60;100.00
23616;BME280;11985;49.404;7.734;2023-04-15T19:07:10;97166.84;;;7.49;100.00
23616;BME280;11985;49.404;7.734;2023-04-15T19:12:12;97162.81;;;7.46;100.00
23616;BME280;11985;49.404;7.734;2023-04-15T19:17:14;97173.28;;;7.46;100.00
23616;BME280;11985;49.404;7.734;2023-04-15T19:22:17;97179.44;;;7.60;100.00
23616;BME280;11985;49.404;7.734;2023-04-15T19:27:18;97181.31;;;7.66;100.00
23616;BME280;11985;49.404;7.734;2023-04-15T19:32:20;97191.78;;;7.87;100.00
23616;BME280;11985;49.404;7.734;2023-04-15T19:37:23;97190.97;;;7.87;100.00
23616;BME280;11985;49.404;7.734;2023-04-15T19:42:25;97194.91;;;7.76;100.00
23616;BME280;11985;49.404;7.734;2023-04-15T19:47:27;97195.56;;;7.57;100.00
23616;BME280;11985;49.404;7.734;2023-04-15T19:52:30;97203.53;;;7.49;100.00
23616;BME280;11985;49.404;7.734;2023-04-15T19:57:31;97201.25;;;7.39;100.00
23616;BME280;11985;49.404;7.734;2023-04-15T20:02:33;97215.53;;;7.36;100.00
23616;BME280;11985;49.404;7.734;2023-04-15T20:07:36;97214.66;;;7.29;100.00
23616;BME280;11985;49.404;7.734;2023-04-15T20:12:41;97215.00;;;7.26;100.00
23616;BME280;11985;49.404;7.734;2023-04-15T20:17:43;97219.25;;;7.27;100.00
23616;BME280;11985;49.404;7.734;2023-04-15T20:22:46;97220.38;;;7.18;100.00
23616;BME280;11985;49.404;7.734;2023-04-15T20:27:48;97225.88;;;7.23;100.00
23616;BME280;11985;49.404;7.734;2023-04-15T20:32:50;97230.94;;;7.46;100.00
23616;BME280;11985;49.404;7.734;2023-04-15T20:37:53;97235.72;;;7.43;100.00
23616;BME280;11985;49.404;7.734;2023-04-15T20:42:54;97237.59;;;7.27;100.00
23616;BME280;11985;49.404;7.734;2023-04-15T20:47:56;97245.69;;;7.11;100.00
23616;BME280;11985;49.404;7.734;2023-04-15T20:52:59;97247.00;;;7.22;100.00
23616;BME280;11985;49.404;7.734;2023-04-15T20:58:01;97242.75;;;7.21;100.00
23616;BME280;11985;49.404;7.734;2023-04-15T21:03:03;97257.88;;;7.04;100.00
23616;BME280;11985;49.404;7.734;2023-04-15T21:08:07;97257.19;;;6.80;100.00
23616;BME280;11985;49.404;7.734;2023-04-15T21:13:08;97261.53;;;6.73;100.00
23616;BME280;11985;49.404;7.734;2023-04-15T21:18:12;97259.19;;;6.78;100.00
23616;BME280;11985;49.404;7.734;2023-04-15T21:23:15;97265.66;;;6.82;100.00
23616;BME280;11985;49.404;7.734;2023-04-15T21:28:16;97272.53;;;6.83;100.00
23616;BME280;11985;49.404;7.734;2023-04-15T21:33:18;97289.34;;;6.89;100.00
23616;BME280;11985;49.404;7.734;2023-04-15T21:38:21;97280.28;;;6.92;100.00
23616;BME280;11985;49.404;7.734;2023-04-15T21:43:23;97285.25;;;6.86;100.00
23616;BME280;11985;49.404;7.734;2023-04-15T21:48:25;97294.28;;;6.84;100.00
23616;BME280;11985;49.404;7.734;2023-04-15T21:53:28;97301.34;;;6.83;100.00
23616;BME280;11985;49.404;7.734;2023-04-15T21:58:29;97296.38;;;6.88;100.00
23616;BME280;11985;49.404;7.734;2023-04-15T22:03:32;97307.28;;;6.92;100.00
23616;BME280;11985;49.404;7.734;2023-04-15T22:08:35;97311.72;;;6.92;100.00
23616;BME280;11985;49.404;7.734;2023-04-15T22:13:37;97309.19;;;6.83;100.00
23616;BME280;11985;49.404;7.734;2023-04-15T22:18:39;97311.91;;;6.90;100.00
23616;BME280;11985;49.404;7.734;2023-04-15T22:23:44;97300.63;;;6.90;100.00
23616;BME280;11985;49.404;7.734;2023-04-15T22:28:46;97311.25;;;6.88;100.00
23616;BME280;11985;49.404;7.734;2023-04-15T22:33:47;97308.72;;;6.80;100.00
23616;BME280;11985;49.404;7.734;2023-04-15T22:38:51;97314.31;;;6.77;100.00
23616;BME280;11985;49.404;7.734;2023-04-15T22:43:52;97311.53;;;6.78;100.00
23616;BME280;11985;49.404;7.734;2023-04-15T22:48:54;97319.81;;;6.82;100.00
23616;BME280;11985;49.404;7.734;2023-04-15T22:53:57;97322.09;;;6.85;100.00
23616;BME280;11985;49.404;7.734;2023-04-15T22:58:58;97330.84;;;6.77;100.00
23616;BME280;11985;49.404;7.734;2023-04-15T23:04:00;97335.63;;;6.74;100.00
23616;BME280;11985;49.404;7.734;2023-04-15T23:09:03;97336.78;;;6.71;100.00
23616;BME280;11985;49.404;7.734;2023-04-15T23:14:05;97330.84;;;6.77;100.00
23616;BME280;11985;49.404;7.734;2023-04-15T23:19:06;97340.34;;;6.78;100.00
23616;BME280;11985;49.404;7.734;2023-04-15T23:24:10;97344.63;;;6.71;100.00
23616;BME280;11985;49.404;7.734;2023-04-15T23:29:11;97353.78;;;6.75;100.00
23616;BME280;11985;49.404;7.734;2023-04-15T23:34:13;97350.16;;;6.76;100.00
23616;BME280;11985;49.404;7.734;2023-04-15T23:39:16;97347.63;;;6.68;100.00
23616;BME280;11985;49.404;7.734;2023-04-15T23:44:18;97358.44;;;6.65;100.00
23616;BME280;11985;49.404;7.734;2023-04-15T23:49:20;97361.34;;;6.70;100.00
23616;BME280;11985;49.404;7.734;2023-04-15T23:54:23;97353.94;;;6.59;100.00
23616;BME280;11985;49.404;7.734;2023-04-15T23:59:24;97352.22;;;6.66;100.00
